Grand Rapids, Canada
Current Conditions -  °F | °C
As of 10:00 PM on Thursday 27 Nov 2014 (Local Time) from CYNE Reporting Station
Clear Clear  
Wind Chill: -8°   Ceiling: Unl
Heat Index: -8°   Visibility: 9mi
Dew Point: -11°   Wind: 3mph
Humidity: 84%   Direction: 330°NNW
Pressure: 30.18"   Gusts: NA
Location:  53.18°N, 99.28°W
Report Text: CYNE 280400Z AUTO 33003KT 9SM CLR M22/M24 A3018 RMK SLP248
Loading
Personal Weather Stations






























Interactive Weather Map New forecast layout! Learn more

10-Day Weather Forecast

Advertisements
Track Severe Weather on mobile